Time;durP1;ratioP1;P1;durP2;ratioP2;P2;SDS_P1;SDS_P2;PMS_P1;PMS_P2;Temp;Humidity;BMP_temperature;BMP_pressure;BME280_temperature;BME280_humidity;BME280_pressure;Samples;Min_cycle;Max_cycle;Signal;HPM_P1;HPM_P2
2024/01/05 00:01:44;;;;;;;190.20;110.75;;;6.90;99.90;;;;;;4932775;29;20044;-78
2024/01/05 00:04:09;;;;;;;161.60;96.97;;;6.90;99.90;;;;;;4930338;29;20083;-78
2024/01/05 00:06:37;;;;;;;156.05;97.88;;;6.80;99.90;;;;;;4919164;29;20023;-76
2024/01/05 00:09:04;;;;;;;123.93;75.82;;;6.80;99.90;;;;;;4923230;29;20460;-77
2024/01/05 00:11:30;;;;;;;128.00;82.47;;;6.80;99.90;;;;;;4917851;29;20079;-77
2024/01/05 00:13:56;;;;;;;134.40;82.85;;;6.70;99.90;;;;;;4921215;29;20062;-77
2024/01/05 00:16:23;;;;;;;126.15;81.07;;;6.60;99.90;;;;;;4920227;29;20068;-78
2024/01/05 00:18:50;;;;;;;126.68;79.75;;;6.60;99.90;;;;;;4921320;29;20044;-77
2024/01/05 00:21:20;;;;;;;122.95;81.72;;;6.50;99.90;;;;;;4922645;29;20103;-77
2024/01/05 00:23:47;;;;;;;119.13;76.75;;;6.40;99.90;;;;;;4917107;29;20067;-77
2024/01/05 00:26:13;;;;;;;120.57;77.97;;;6.30;99.90;;;;;;4927259;29;20436;-76
2024/01/05 00:28:39;;;;;;;132.38;79.22;;;6.40;99.90;;;;;;4921815;29;20038;-78
2024/01/05 00:31:07;;;;;;;120.18;78.28;;;6.30;99.90;;;;;;4919697;29;20457;-77
2024/01/05 00:33:34;;;;;;;125.13;79.68;;;6.30;99.90;;;;;;4916216;29;20024;-77
2024/01/05 00:36:02;;;;;;;113.22;70.13;;;6.20;99.90;;;;;;4917872;29;20036;-76
2024/01/05 00:38:28;;;;;;;106.43;66.07;;;6.10;99.90;;;;;;4923206;29;20032;-75
2024/01/05 00:40:54;;;;;;;112.03;68.25;;;6.10;99.90;;;;;;4922656;29;20027;-77
2024/01/05 00:43:20;;;;;;;118.00;77.90;;;6.10;99.90;;;;;;4922490;28;20396;-77
2024/01/05 00:45:45;;;;;;;129.15;81.07;;;6.10;99.90;;;;;;4917770;29;20361;-77
2024/01/05 00:48:11;;;;;;;161.60;96.57;;;6.00;99.90;;;;;;4921057;29;20024;-76
2024/01/05 00:50:37;;;;;;;149.95;89.85;;;6.00;99.90;;;;;;4921092;29;20042;-76
2024/01/05 00:53:03;;;;;;;175.50;102.68;;;5.90;99.90;;;;;;4917421;29;20024;-76
2024/01/05 00:55:29;;;;;;;162.57;96.10;;;5.90;99.90;;;;;;4928212;29;20386;-77
2024/01/05 00:57:56;;;;;;;164.90;101.15;;;5.90;99.90;;;;;;4920034;29;20523;-77
2024/01/05 01:00:21;;;;;;;115.60;73.05;;;5.90;99.90;;;;;;4920587;29;20114;-77
2024/01/05 01:02:47;;;;;;;103.78;65.38;;;5.80;99.90;;;;;;4917305;29;20103;-75
2024/01/05 01:05:13;;;;;;;88.93;61.05;;;5.80;99.90;;;;;;4920924;29;20028;-76
2024/01/05 01:07:40;;;;;;;82.72;56.90;;;5.80;99.90;;;;;;4919876;29;20436;-77
2024/01/05 01:10:06;;;;;;;81.72;58.55;;;5.80;99.90;;;;;;4921673;29;20086;-76
2024/01/05 01:12:33;;;;;;;80.78;52.67;;;5.80;99.90;;;;;;4917967;29;20020;-76
2024/01/05 01:14:58;;;;;;;111.70;72.68;;;5.80;99.90;;;;;;4918466;29;20024;-77
2024/01/05 01:17:24;;;;;;;107.03;70.47;;;5.80;99.90;;;;;;4922368;29;20028;-77
2024/01/05 01:19:50;;;;;;;111.55;74.32;;;5.80;99.90;;;;;;4933020;29;20034;-77
2024/01/05 01:22:16;;;;;;;107.78;70.03;;;5.70;99.90;;;;;;4918690;29;20058;-77
2024/01/05 01:24:42;;;;;;;105.97;72.10;;;5.70;99.90;;;;;;4919568;29;20023;-77
2024/01/05 01:27:08;;;;;;;102.18;68.95;;;5.70;99.90;;;;;;4926144;29;20115;-78
2024/01/05 01:29:34;;;;;;;112.07;70.35;;;5.70;99.90;;;;;;4919997;29;20052;-76
2024/01/05 01:32:00;;;;;;;104.75;68.53;;;5.70;99.90;;;;;;4920374;29;20480;-76
2024/01/05 01:34:25;;;;;;;96.90;69.30;;;5.60;99.90;;;;;;4922082;29;20460;-77
2024/01/05 01:36:53;;;;;;;103.25;69.53;;;5.40;99.90;;;;;;4918155;29;20028;-77
2024/01/05 01:39:19;;;;;;;100.65;66.63;;;5.30;99.90;;;;;;4921537;29;20392;-76
2024/01/05 01:41:44;;;;;;;92.35;63.70;;;5.30;99.90;;;;;;4924478;29;20031;-76
2024/01/05 01:44:10;;;;;;;106.63;70.15;;;5.00;99.90;;;;;;4922697;29;20075;-76
2024/01/05 01:46:36;;;;;;;132.80;87.47;;;5.00;99.90;;;;;;4922168;29;20428;-75
2024/01/05 01:49:04;;;;;;;139.05;94.45;;;5.00;99.90;;;;;;4923155;29;20036;-76
2024/01/05 01:51:34;;;;;;;126.53;79.22;;;5.10;99.90;;;;;;4916470;29;20050;-76
2024/01/05 01:54:04;;;;;;;142.45;88.05;;;5.20;99.90;;;;;;4919820;29;20024;-75
2024/01/05 01:56:34;;;;;;;175.18;111.47;;;5.20;99.90;;;;;;4924624;28;20039;-76
2024/01/05 01:59:01;;;;;;;139.82;95.03;;;5.20;99.90;;;;;;4924113;29;20443;-76
2024/01/05 02:01:27;;;;;;;109.90;75.38;;;5.10;99.90;;;;;;4916618;29;20099;-77
2024/01/05 02:03:53;;;;;;;80.85;59.55;;;5.10;99.90;;;;;;4917019;29;20120;-76
2024/01/05 02:06:20;;;;;;;78.07;58.55;;;5.00;99.90;;;;;;4919899;29;20027;-77
2024/01/05 02:08:47;;;;;;;82.35;60.58;;;5.00;99.90;;;;;;4922567;29;20480;-76
2024/01/05 02:11:13;;;;;;;79.13;57.45;;;5.00;99.90;;;;;;4917278;29;20098;-76
2024/01/05 02:13:40;;;;;;;78.28;58.17;;;5.00;99.90;;;;;;4918060;29;20064;-78
2024/01/05 02:16:06;;;;;;;67.53;49.42;;;5.00;99.90;;;;;;4920315;29;20028;-76
2024/01/05 02:18:32;;;;;;;76.07;54.78;;;5.10;99.90;;;;;;4914837;29;20028;-75
2024/01/05 02:21:03;;;;;;;83.70;56.83;;;5.20;99.90;;;;;;4922656;29;20036;-75
2024/01/05 02:23:31;;;;;;;82.43;59.00;;;5.10;99.90;;;;;;4922413;29;20047;-76
2024/01/05 02:25:58;;;;;;;80.03;58.00;;;5.10;99.90;;;;;;4918145;29;20035;-77
2024/01/05 02:28:24;;;;;;;93.38;60.95;;;5.10;99.90;;;;;;4915904;29;20020;-77
2024/01/05 02:30:53;;;;;;;87.68;60.80;;;5.00;99.90;;;;;;4919228;29;20031;-75
2024/01/05 02:33:19;;;;;;;91.65;62.97;;;5.10;99.90;;;;;;4918053;29;20365;-78
2024/01/05 02:35:45;;;;;;;92.22;64.25;;;5.00;99.90;;;;;;4919426;29;20035;-77
2024/01/05 02:38:11;;;;;;;109.15;72.47;;;4.90;99.90;;;;;;4920597;29;20024;-75
2024/01/05 02:40:37;;;;;;;80.80;56.00;;;4.80;99.90;;;;;;4916314;29;20134;-76
2024/01/05 02:43:03;;;;;;;72.95;51.25;;;4.80;99.90;;;;;;4918780;29;20027;-76
2024/01/05 02:45:29;;;;;;;74.25;51.42;;;4.90;99.90;;;;;;4920843;29;20470;-77
2024/01/05 02:47:55;;;;;;;48.42;37.10;;;4.90;99.90;;;;;;4917648;29;20028;-75
2024/01/05 02:50:21;;;;;;;62.92;43.85;;;5.00;99.90;;;;;;4917636;29;20439;-76
2024/01/05 02:52:47;;;;;;;58.85;41.78;;;5.00;99.90;;;;;;4918105;29;20039;-75
2024/01/05 02:55:13;;;;;;;70.13;52.15;;;4.90;99.90;;;;;;4918473;29;20058;-76
2024/01/05 02:57:41;;;;;;;67.57;46.45;;;5.00;99.90;;;;;;4919713;29;20020;-76
2024/01/05 03:00:07;;;;;;;67.28;46.40;;;5.00;99.90;;;;;;4916075;29;20091;-74
2024/01/05 03:02:33;;;;;;;63.55;46.60;;;4.90;99.90;;;;;;4914553;29;20024;-75
2024/01/05 03:04:59;;;;;;;71.68;48.42;;;4.80;99.90;;;;;;4920483;29;22062;-75
2024/01/05 03:07:25;;;;;;;70.45;49.85;;;4.90;99.90;;;;;;4918244;29;20032;-74
2024/01/05 03:09:51;;;;;;;70.72;51.45;;;4.80;99.90;;;;;;4917728;29;20064;-76
2024/01/05 03:12:18;;;;;;;75.70;49.55;;;4.70;99.90;;;;;;4919299;29;20111;-75
2024/01/05 03:14:44;;;;;;;69.30;48.97;;;4.70;99.90;;;;;;4917034;29;20531;-75
2024/01/05 03:17:10;;;;;;;66.80;46.92;;;4.60;99.90;;;;;;4919587;29;20028;-77
2024/01/05 03:19:36;;;;;;;73.78;47.95;;;4.60;99.90;;;;;;4920615;29;20028;-75
2024/01/05 03:22:03;;;;;;;84.55;48.90;;;4.50;99.90;;;;;;4916204;29;20098;-76
2024/01/05 03:24:29;;;;;;;78.88;47.78;;;4.60;99.90;;;;;;4916422;29;20432;-76
2024/01/05 03:26:55;;;;;;;60.22;38.13;;;4.70;99.90;;;;;;4914610;29;20016;-76
2024/01/05 03:29:21;;;;;;;53.53;29.50;;;4.70;99.90;;;;;;4926987;29;20088;-75
2024/01/05 03:31:47;;;;;;;53.45;34.15;;;4.70;99.90;;;;;;4917598;29;20078;-74
2024/01/05 03:34:14;;;;;;;62.97;38.13;;;4.70;99.90;;;;;;4918221;29;20151;-77
2024/01/05 03:36:40;;;;;;;53.97;32.63;;;4.70;99.90;;;;;;4915439;29;20494;-74
2024/01/05 03:39:07;;;;;;;59.33;39.88;;;4.70;99.90;;;;;;4914482;29;20032;-76
2024/01/05 03:41:34;;;;;;;70.85;41.65;;;4.70;99.90;;;;;;4917654;29;20020;-76
2024/01/05 03:44:00;;;;;;;67.70;43.28;;;4.60;99.90;;;;;;4923327;29;20032;-75
2024/01/05 03:46:26;;;;;;;69.05;42.45;;;4.50;99.90;;;;;;4916262;29;20016;-76
2024/01/05 03:48:52;;;;;;;55.60;35.53;;;4.40;99.90;;;;;;4916192;29;20023;-76
2024/01/05 03:51:18;;;;;;;56.67;36.67;;;4.50;99.90;;;;;;4917907;29;20041;-75
2024/01/05 03:53:44;;;;;;;59.75;34.63;;;4.40;99.90;;;;;;4919767;29;20052;-77
2024/01/05 03:56:10;;;;;;;49.50;31.85;;;4.40;99.90;;;;;;4920070;29;20036;-75
2024/01/05 03:58:36;;;;;;;46.38;29.65;;;4.40;99.90;;;;;;4919181;29;20040;-76
2024/01/05 04:01:03;;;;;;;42.15;30.65;;;4.40;99.90;;;;;;4913971;29;20028;-77
2024/01/05 04:03:30;;;;;;;47.97;31.35;;;4.40;99.90;;;;;;4924513;29;20554;-76
2024/01/05 04:05:56;;;;;;;43.83;29.90;;;4.40;99.90;;;;;;4924576;29;20066;-75
2024/01/05 04:08:22;;;;;;;40.08;23.23;;;4.40;99.90;;;;;;4921203;29;20039;-75
2024/01/05 04:10:48;;;;;;;32.78;20.23;;;4.30;99.90;;;;;;4917298;29;20526;-76
2024/01/05 04:13:14;;;;;;;34.10;19.50;;;4.30;99.90;;;;;;4917734;29;20107;-76
2024/01/05 04:15:40;;;;;;;30.23;20.45;;;4.30;99.90;;;;;;4920705;29;20032;-75
2024/01/05 04:18:06;;;;;;;26.23;16.98;;;4.30;99.90;;;;;;4924097;29;20035;-76
2024/01/05 04:20:33;;;;;;;22.33;13.13;;;4.30;99.90;;;;;;4919249;29;20039;-77
2024/01/05 04:23:00;;;;;;;21.05;12.60;;;4.30;99.90;;;;;;4919024;29;20035;-75
2024/01/05 04:25:26;;;;;;;21.50;12.75;;;4.30;99.90;;;;;;4917350;29;20036;-75
2024/01/05 04:27:52;;;;;;;18.60;11.35;;;4.30;99.90;;;;;;4923307;29;20035;-76
2024/01/05 04:30:20;;;;;;;23.73;11.73;;;4.30;99.90;;;;;;4919276;29;20048;-75
2024/01/05 04:32:47;;;;;;;18.90;11.93;;;4.10;99.90;;;;;;4919358;29;20046;-76
2024/01/05 04:35:13;;;;;;;22.60;12.48;;;4.10;99.90;;;;;;4917313;29;20020;-76
2024/01/05 04:37:39;;;;;;;31.05;19.65;;;4.10;99.90;;;;;;4902911;29;20468;-76
2024/01/05 04:40:06;;;;;;;32.70;18.85;;;4.10;99.90;;;;;;4919833;29;20042;-76
2024/01/05 04:42:32;;;;;;;27.55;17.75;;;4.20;99.90;;;;;;4920293;29;20028;-76
2024/01/05 04:44:59;;;;;;;33.55;19.08;;;4.30;99.90;;;;;;4917556;29;20122;-76
2024/01/05 04:47:25;;;;;;;30.45;19.17;;;4.30;99.90;;;;;;4920476;29;20020;-76
2024/01/05 04:49:51;;;;;;;36.47;19.95;;;4.30;99.90;;;;;;4932083;29;20028;-75
2024/01/05 04:52:17;;;;;;;32.63;21.65;;;4.30;99.90;;;;;;4935688;29;20086;-76
2024/01/05 04:54:42;;;;;;;33.20;22.58;;;4.30;99.90;;;;;;4935830;29;20030;-75
2024/01/05 04:57:08;;;;;;;30.73;20.88;;;4.30;99.90;;;;;;4935700;29;20066;-76
2024/01/05 04:59:34;;;;;;;33.25;19.88;;;4.40;99.90;;;;;;4934006;29;20035;-75
2024/01/05 05:02:00;;;;;;;23.25;13.88;;;4.30;99.90;;;;;;4924613;29;20490;-75
2024/01/05 05:04:26;;;;;;;31.95;19.30;;;4.30;99.90;;;;;;4919941;29;20060;-75
2024/01/05 05:06:53;;;;;;;56.55;32.55;;;4.30;99.90;;;;;;4934024;29;20042;-75
2024/01/05 05:09:19;;;;;;;47.15;30.23;;;4.30;99.90;;;;;;4936543;29;20108;-74
2024/01/05 05:11:45;;;;;;;46.50;31.40;;;4.30;99.90;;;;;;4936468;29;20131;-76
2024/01/05 05:14:11;;;;;;;25.35;15.50;;;4.30;99.90;;;;;;4937012;29;20024;-76
2024/01/05 05:16:37;;;;;;;36.13;17.60;;;4.30;99.90;;;;;;4936256;29;20468;-75
2024/01/05 05:19:04;;;;;;;37.95;23.75;;;4.30;99.90;;;;;;4913023;29;20460;-76
2024/01/05 05:21:31;;;;;;;37.55;23.05;;;4.40;99.90;;;;;;4930409;29;20158;-76
2024/01/05 05:23:57;;;;;;;39.95;21.63;;;4.40;99.90;;;;;;4954931;29;20486;-76
2024/01/05 05:26:23;;;;;;;43.90;25.65;;;4.40;99.90;;;;;;4943533;29;20032;-76
2024/01/05 05:28:48;;;;;;;40.58;25.77;;;4.50;99.90;;;;;;4936362;29;20024;-76
2024/01/05 05:31:15;;;;;;;40.15;26.52;;;4.60;99.90;;;;;;4936273;29;20043;-76
2024/01/05 05:33:41;;;;;;;44.03;26.33;;;4.50;99.90;;;;;;4936275;29;20463;-75
2024/01/05 05:36:06;;;;;;;45.63;26.13;;;4.40;99.90;;;;;;4936310;29;20031;-75
2024/01/05 05:38:32;;;;;;;42.83;26.73;;;4.40;99.90;;;;;;4935949;29;20027;-75
2024/01/05 05:40:58;;;;;;;42.53;26.60;;;4.40;99.90;;;;;;4936437;29;20031;-75
2024/01/05 05:43:24;;;;;;;47.03;29.40;;;4.30;99.90;;;;;;4936065;29;20103;-75
2024/01/05 05:45:50;;;;;;;49.53;28.60;;;4.30;99.90;;;;;;4936281;29;20386;-75
2024/01/05 05:48:16;;;;;;;52.85;31.55;;;4.30;99.90;;;;;;4935772;29;20029;-75
2024/01/05 05:50:42;;;;;;;45.33;29.08;;;4.20;99.90;;;;;;4935839;29;20115;-75
2024/01/05 05:53:09;;;;;;;55.80;31.48;;;4.20;99.90;;;;;;4935854;29;20046;-74
2024/01/05 05:55:35;;;;;;;58.55;33.50;;;4.20;99.90;;;;;;4935816;29;20052;-75
2024/01/05 05:58:01;;;;;;;64.90;40.08;;;4.10;99.90;;;;;;4926672;29;20403;-74
2024/01/05 06:00:27;;;;;;;91.90;50.15;;;4.10;99.90;;;;;;4937553;29;20063;-75
2024/01/05 06:02:53;;;;;;;69.57;40.00;;;4.10;99.90;;;;;;4935920;29;20023;-74
2024/01/05 06:05:19;;;;;;;77.72;47.90;;;4.00;99.90;;;;;;4935200;29;20391;-76
2024/01/05 06:07:45;;;;;;;74.10;47.00;;;4.00;99.90;;;;;;4935676;29;20027;-75
2024/01/05 06:10:11;;;;;;;73.97;44.63;;;3.70;99.90;;;;;;4935282;29;20554;-76
2024/01/05 06:12:37;;;;;;;70.50;43.08;;;3.70;99.90;;;;;;4935816;29;20310;-76
2024/01/05 06:15:05;;;;;;;56.05;37.30;;;3.70;99.90;;;;;;4934992;29;20048;-75
2024/01/05 06:17:31;;;;;;;54.70;35.67;;;3.70;99.90;;;;;;4934663;29;20111;-75
2024/01/05 06:19:57;;;;;;;58.60;35.20;;;3.60;99.90;;;;;;4941441;29;20127;-75
2024/01/05 06:22:23;;;;;;;55.25;35.88;;;3.50;99.90;;;;;;4934954;29;20496;-75
2024/01/05 06:24:49;;;;;;;52.28;33.25;;;3.60;99.90;;;;;;4935094;29;20102;-75
2024/01/05 06:27:14;;;;;;;52.20;33.33;;;3.60;99.90;;;;;;4934727;29;20023;-75
2024/01/05 06:29:40;;;;;;;49.88;31.33;;;3.60;99.90;;;;;;4935220;29;20494;-75
2024/01/05 06:32:06;;;;;;;53.15;35.80;;;3.70;99.90;;;;;;4934617;29;20027;-76
2024/01/05 06:34:32;;;;;;;53.63;34.92;;;3.70;99.90;;;;;;4935525;29;20031;-75
2024/01/05 06:36:59;;;;;;;64.55;45.33;;;3.70;99.90;;;;;;4942246;28;20114;-75
2024/01/05 06:39:25;;;;;;;87.40;58.15;;;3.80;99.90;;;;;;4935176;29;20024;-75
2024/01/05 06:41:50;;;;;;;52.53;34.58;;;3.80;99.90;;;;;;4934914;29;20027;-75
2024/01/05 06:44:16;;;;;;;54.53;36.03;;;3.90;99.90;;;;;;4935306;29;20495;-75
2024/01/05 06:46:42;;;;;;;65.88;43.78;;;3.90;99.90;;;;;;4934809;29;20023;-75
2024/01/05 06:49:08;;;;;;;80.03;53.88;;;4.00;99.90;;;;;;4935536;29;20019;-75
2024/01/05 06:51:38;;;;;;;55.97;38.85;;;4.10;99.90;;;;;;4934426;29;20067;-76
2024/01/05 06:54:04;;;;;;;46.60;34.97;;;4.20;99.90;;;;;;4934715;29;20038;-75
2024/01/05 06:56:32;;;;;;;58.80;40.30;;;4.30;99.90;;;;;;4935091;29;20032;-75
2024/01/05 06:59:02;;;;;;;43.78;29.75;;;4.40;99.90;;;;;;4934465;29;20023;-75
2024/01/05 07:01:28;;;;;;;46.10;29.75;;;4.40;99.90;;;;;;4934941;29;20039;-76
2024/01/05 07:03:54;;;;;;;45.97;31.08;;;4.50;99.90;;;;;;4934291;29;20020;-75
2024/01/05 07:06:20;;;;;;;50.17;35.20;;;4.50;99.90;;;;;;4934523;29;20139;-75
2024/01/05 07:08:46;;;;;;;47.35;30.10;;;4.50;99.90;;;;;;4934453;29;20024;-75
2024/01/05 07:11:22;;;;;;;50.63;33.05;;;4.50;99.90;;;;;;4934591;29;20403;-75
2024/01/05 07:13:48;;;;;;;47.88;31.92;;;4.50;99.90;;;;;;4934370;29;20071;-75
2024/01/05 07:16:21;;;;;;;52.97;34.17;;;4.60;99.90;;;;;;4937567;29;20070;-75
2024/01/05 07:18:47;;;;;;;54.67;34.95;;;4.60;99.90;;;;;;4933947;29;20110;-75
2024/01/05 07:21:14;;;;;;;56.53;35.90;;;4.60;99.90;;;;;;4933690;29;20502;-76
2024/01/05 07:23:40;;;;;;;64.45;43.67;;;4.60;99.90;;;;;;4933382;29;20046;-74
2024/01/05 07:26:06;;;;;;;100.40;69.78;;;4.60;99.90;;;;;;4914992;29;20120;-75
2024/01/05 07:28:32;;;;;;;65.22;36.95;;;4.70;99.90;;;;;;4939838;29;20059;-75
2024/01/05 07:31:02;;;;;;;42.72;27.38;;;4.80;99.90;;;;;;4934950;29;20161;-75
2024/01/05 07:33:29;;;;;;;57.97;36.95;;;4.80;99.90;;;;;;4925988;29;20432;-75
2024/01/05 07:35:55;;;;;;;46.60;32.60;;;4.90;99.90;;;;;;4934020;29;20446;-75
2024/01/05 07:38:21;;;;;;;62.08;41.28;;;4.90;99.90;;;;;;4932923;29;20118;-75
2024/01/05 07:40:47;;;;;;;55.35;38.00;;;5.00;99.90;;;;;;4934499;29;20028;-75
2024/01/05 07:43:13;;;;;;;66.05;41.95;;;5.10;99.90;;;;;;4934646;29;20471;-75
2024/01/05 07:45:39;;;;;;;79.00;52.08;;;5.20;99.90;;;;;;4938490;29;20469;-75
2024/01/05 07:48:05;;;;;;;63.10;41.75;;;5.30;99.90;;;;;;4937879;29;20062;-75
2024/01/05 07:50:31;;;;;;;63.17;38.90;;;5.50;99.90;;;;;;4937995;29;20047;-75
2024/01/05 07:52:57;;;;;;;57.75;36.13;;;5.50;99.90;;;;;;4937860;29;20028;-75
2024/01/05 07:55:23;;;;;;;52.70;36.90;;;5.70;99.90;;;;;;4921032;29;20044;-75
2024/01/05 07:57:49;;;;;;;52.35;32.92;;;5.80;99.90;;;;;;4937670;29;20379;-75
2024/01/05 08:00:15;;;;;;;47.17;29.20;;;6.00;99.90;;;;;;4937731;29;20444;-76
2024/01/05 08:02:41;;;;;;;45.25;29.45;;;6.10;99.90;;;;;;4938087;29;20028;-76
2024/01/05 08:05:10;;;;;;;49.33;29.83;;;6.30;99.90;;;;;;4937605;29;21513;-76
2024/01/05 08:07:37;;;;;;;45.90;30.42;;;6.40;99.90;;;;;;4937757;29;20114;-76
2024/01/05 08:10:04;;;;;;;58.58;39.97;;;6.60;99.90;;;;;;4937271;29;20052;-75
2024/01/05 08:12:30;;;;;;;57.88;39.25;;;6.50;99.90;;;;;;4937881;29;20028;-76
2024/01/05 08:14:56;;;;;;;54.58;37.22;;;6.50;99.90;;;;;;4937630;29;20494;-75
2024/01/05 08:17:22;;;;;;;49.42;34.33;;;6.40;99.90;;;;;;4937819;29;20387;-75
2024/01/05 08:19:48;;;;;;;51.95;36.20;;;6.40;99.90;;;;;;4937497;29;20035;-76
2024/01/05 08:22:14;;;;;;;56.45;34.38;;;6.40;99.90;;;;;;4941698;29;20468;-75
2024/01/05 08:24:39;;;;;;;51.67;27.05;;;6.40;99.90;;;;;;4937627;29;20035;-76
2024/01/05 08:27:05;;;;;;;44.10;26.58;;;6.30;99.90;;;;;;4937386;29;20039;-75
2024/01/05 08:29:33;;;;;;;38.35;26.35;;;6.40;99.90;;;;;;4937557;29;20039;-76
2024/01/05 08:32:02;;;;;;;32.72;23.67;;;6.40;99.90;;;;;;4937751;29;20451;-76
2024/01/05 08:34:29;;;;;;;39.05;22.55;;;6.50;99.90;;;;;;4937313;29;20032;-75
2024/01/05 08:36:55;;;;;;;34.65;23.08;;;6.50;99.90;;;;;;4937106;29;20059;-76
2024/01/05 08:39:21;;;;;;;36.03;24.80;;;6.60;99.90;;;;;;4937100;29;20062;-75
2024/01/05 08:41:47;;;;;;;45.35;29.67;;;6.60;99.90;;;;;;4937148;29;20032;-76
2024/01/05 08:44:14;;;;;;;44.92;28.52;;;6.70;99.90;;;;;;4937047;29;20027;-76
2024/01/05 08:46:41;;;;;;;45.97;33.63;;;6.80;99.90;;;;;;4937279;29;20032;-76
2024/01/05 08:49:07;;;;;;;46.95;32.25;;;6.80;99.90;;;;;;4936822;29;20034;-75
2024/01/05 08:51:33;;;;;;;50.65;34.13;;;6.90;99.90;;;;;;4937170;29;20051;-76
2024/01/05 08:54:01;;;;;;;54.65;38.22;;;6.90;99.90;;;;;;4936560;29;20032;-75
2024/01/05 08:56:27;;;;;;;54.08;38.22;;;7.00;99.90;;;;;;4936130;29;20472;-76
2024/01/05 08:58:53;;;;;;;58.05;39.72;;;7.10;99.90;;;;;;4936574;29;20020;-76
2024/01/05 09:01:19;;;;;;;64.55;44.55;;;7.20;99.90;;;;;;4937017;29;20047;-76
2024/01/05 09:03:45;;;;;;;56.53;42.13;;;7.40;99.90;;;;;;4936635;29;20024;-76
2024/01/05 09:06:11;;;;;;;59.90;42.17;;;7.60;99.90;;;;;;4936998;29;20027;-76
2024/01/05 09:08:38;;;;;;;63.70;44.33;;;7.80;99.90;;;;;;4936396;29;20427;-75
2024/01/05 09:11:04;;;;;;;58.85;43.75;;;7.90;99.90;;;;;;4936648;29;20047;-76
2024/01/05 09:13:30;;;;;;;60.10;43.03;;;8.00;99.90;;;;;;4936686;29;20071;-76
2024/01/05 09:15:56;;;;;;;64.43;44.85;;;8.10;99.90;;;;;;4936538;29;20031;-76
2024/01/05 09:18:22;;;;;;;70.43;45.53;;;8.20;99.90;;;;;;4936508;29;20020;-75
2024/01/05 09:20:51;;;;;;;80.50;56.95;;;8.40;99.90;;;;;;4936405;29;20039;-74
2024/01/05 09:23:17;;;;;;;78.65;54.33;;;8.40;99.90;;;;;;4936380;29;20031;-74
2024/01/05 09:25:43;;;;;;;73.97;49.83;;;8.60;99.90;;;;;;4936374;29;20078;-76
2024/01/05 09:28:09;;;;;;;73.88;48.85;;;8.70;99.90;;;;;;4936304;29;20177;-75
2024/01/05 09:30:35;;;;;;;66.78;45.70;;;8.60;99.90;;;;;;4936351;29;20378;-76
2024/01/05 09:33:02;;;;;;;53.83;36.75;;;8.80;99.90;;;;;;4936155;29;20023;-75
2024/01/05 09:35:28;;;;;;;56.35;37.50;;;8.80;99.90;;;;;;4935990;29;20043;-75
2024/01/05 09:37:54;;;;;;;60.17;37.03;;;9.10;99.90;;;;;;4936039;29;20103;-75
2024/01/05 09:40:21;;;;;;;51.53;38.08;;;9.30;99.90;;;;;;4919202;29;20023;-77
2024/01/05 09:42:51;;;;;;;62.70;39.95;;;9.40;99.90;;;;;;4935824;29;20075;-76
2024/01/05 09:45:21;;;;;;;52.60;36.97;;;9.60;99.90;;;;;;4936281;29;20028;-76
2024/01/05 09:47:49;;;;;;;47.15;36.03;;;9.60;99.90;;;;;;4935753;29;20027;-75
2024/01/05 09:50:18;;;;;;;53.70;37.22;;;9.70;99.90;;;;;;4935813;29;20067;-74
2024/01/05 09:52:44;;;;;;;69.30;48.15;;;9.80;99.90;;;;;;4936070;29;20388;-77
2024/01/05 09:55:14;;;;;;;74.80;49.45;;;9.90;99.90;;;;;;4935854;29;20077;-77
2024/01/05 09:57:44;;;;;;;71.30;53.95;;;10.00;99.90;;;;;;4936055;29;20030;-76
2024/01/05 10:00:14;;;;;;;73.10;52.53;;;10.20;99.90;;;;;;4935739;29;20159;-77
2024/01/05 10:02:44;;;;;;;72.15;53.70;;;10.10;99.90;;;;;;4935820;29;20387;-76
2024/01/05 10:05:11;;;;;;;88.28;62.40;;;10.10;99.90;;;;;;4935439;29;20365;-75
2024/01/05 10:07:44;;;;;;;93.65;70.47;;;10.10;99.90;;;;;;4935770;29;20016;-75
2024/01/05 10:10:12;;;;;;;;;;;10.30;99.90;;;;;;4935824;29;20039;-76
2024/01/05 10:12:41;;;;;;;70.28;50.35;;;10.30;99.90;;;;;;4935568;29;19914;-77
2024/01/05 10:15:08;;;;;;;63.60;41.83;;;10.40;99.90;;;;;;4918709;29;20031;-78
2024/01/05 10:17:35;;;;;;;54.90;36.20;;;10.30;99.90;;;;;;4935518;29;20023;-77
2024/01/05 10:20:12;;;;;;;62.42;43.50;;;10.40;99.90;;;;;;4922838;29;20034;-76
2024/01/05 10:22:38;;;;;;;57.10;42.60;;;10.40;99.90;;;;;;4935021;29;20047;-76
2024/01/05 10:25:18;;;;;;;56.30;32.80;;;10.50;99.90;;;;;;4935295;29;20094;-76
2024/01/05 10:27:51;;;;;;;52.83;34.85;;;10.60;99.90;;;;;;4935281;29;20564;-75
2024/01/05 10:30:29;;;;;;;45.55;32.47;;;10.70;99.90;;;;;;4935120;29;20036;-75
2024/01/05 10:33:09;;;;;;;57.40;40.55;;;10.70;99.90;;;;;;4947940;28;20146;-76
2024/01/05 10:35:35;;;;;;;74.80;47.78;;;10.60;99.90;;;;;;4935104;29;20039;-76
2024/01/05 10:38:13;;;;;;;61.25;44.72;;;10.60;99.90;;;;;;4943307;29;20035;-76
2024/01/05 10:40:40;;;;;;;59.70;39.95;;;10.70;99.90;;;;;;4937849;29;20545;-78
2024/01/05 10:43:10;;;;;;;59.22;36.42;;;10.60;99.90;;;;;;4935211;29;20071;-78
2024/01/05 10:45:37;;;;;;;49.75;36.63;;;10.60;99.90;;;;;;4935038;29;20030;-77
2024/01/05 10:48:07;;;;;;;46.92;33.60;;;10.60;99.90;;;;;;4918031;29;20035;-76
2024/01/05 10:50:37;;;;;;;51.65;35.70;;;10.60;99.90;;;;;;4934360;29;20035;-77
2024/01/05 10:53:04;;;;;;;51.15;34.55;;;10.70;99.90;;;;;;4934854;29;20020;-77
2024/01/05 10:55:33;;;;;;;49.42;36.03;;;10.60;99.90;;;;;;4934758;29;20028;-78
2024/01/05 10:57:59;;;;;;;51.63;35.55;;;10.70;99.90;;;;;;4934916;29;20074;-78
2024/01/05 11:00:24;;;;;;;45.03;31.13;;;10.60;99.90;;;;;;4934475;29;20432;-76
2024/01/05 11:03:06;;;;;;;37.83;25.95;;;10.80;99.90;;;;;;4934768;29;20404;-76
2024/01/05 11:05:32;;;;;;;50.78;30.90;;;11.00;99.90;;;;;;4935038;29;20036;-77
2024/01/05 11:08:01;;;;;;;39.35;26.92;;;11.10;99.90;;;;;;4934536;29;20473;-76
2024/01/05 11:10:30;;;;;;;37.05;24.27;;;11.10;99.90;;;;;;4934678;29;20399;-76
2024/01/05 11:13:14;;;;;;;43.58;30.23;;;11.30;99.90;;;;;;4934336;29;20040;-76
2024/01/05 11:15:49;;;;;;;42.58;30.33;;;11.30;99.90;;;;;;4934802;29;20110;-77
2024/01/05 11:18:21;;;;;;;46.40;32.63;;;11.40;99.90;;;;;;4936369;29;20051;-77
2024/01/05 11:21:08;;;;;;;45.50;31.77;;;11.40;99.90;;;;;;4940852;29;20028;-78
2024/01/05 11:23:36;;;;;;;42.40;27.80;;;11.40;99.90;;;;;;4940877;29;20266;-78
2024/01/05 11:26:02;;;;;;;35.30;25.10;;;11.40;99.90;;;;;;4940950;29;20399;-79
2024/01/05 11:28:38;;;;;;;32.72;21.75;;;11.40;99.90;;;;;;4941066;29;20039;-78
2024/01/05 11:31:04;;;;;;;35.13;25.58;;;11.30;99.90;;;;;;4940848;29;20106;-76
2024/01/05 11:33:49;;;;;;;39.45;27.23;;;11.40;99.90;;;;;;4940890;29;20464;-78
2024/01/05 11:36:49;;;;;;;43.70;30.42;;;11.40;99.90;;;;;;4940618;29;20395;-77
2024/01/05 11:39:39;;;;;;;41.95;28.40;;;11.40;99.90;;;;;;4940381;29;20055;-77
2024/01/05 11:42:05;;;;;;;46.28;28.73;;;11.40;99.90;;;;;;4940525;29;20375;-76
2024/01/05 11:44:36;;;;;;;54.63;33.97;;;11.40;99.90;;;;;;4940571;29;20059;-76
2024/01/05 11:47:02;;;;;;;45.53;29.75;;;11.40;99.90;;;;;;4940283;29;20039;-78
2024/01/05 11:49:45;;;;;;;40.05;28.17;;;11.40;99.90;;;;;;4941057;29;20035;-77
2024/01/05 11:52:11;;;;;;;45.05;29.42;;;11.30;99.90;;;;;;4940221;29;20027;-77
2024/01/05 11:54:37;;;;;;;45.25;31.27;;;11.30;99.90;;;;;;4940880;29;20537;-76
2024/01/05 11:57:04;;;;;;;38.70;27.88;;;11.40;99.90;;;;;;4940539;29;20375;-75
2024/01/05 11:59:30;;;;;;;43.05;28.58;;;11.40;99.90;;;;;;4940875;29;20031;-77
2024/01/05 12:01:56;;;;;;;40.75;26.60;;;11.40;99.90;;;;;;4940506;29;20055;-75
2024/01/05 12:04:21;;;;;;;36.75;27.27;;;11.40;99.90;;;;;;4940533;29;20062;-76
2024/01/05 12:06:52;;;;;;;36.45;25.10;;;11.40;99.90;;;;;;4940618;29;20035;-77
2024/01/05 12:09:20;;;;;;;41.33;29.02;;;11.20;99.90;;;;;;4940346;29;20036;-77
2024/01/05 12:11:46;;;;;;;46.35;31.35;;;11.30;99.90;;;;;;4940315;29;20079;-77
2024/01/05 12:14:26;;;;;;;41.50;29.75;;;11.30;99.90;;;;;;4940595;29;20079;-76
2024/01/05 12:16:52;;;;;;;46.55;32.25;;;11.30;99.90;;;;;;4940216;29;20059;-77
2024/01/05 12:19:21;;;;;;;48.08;29.83;;;11.20;99.90;;;;;;4940514;29;20040;-76
2024/01/05 12:21:53;;;;;;;45.92;31.17;;;11.20;99.90;;;;;;4940212;29;20413;-77
2024/01/05 12:24:19;;;;;;;43.80;30.10;;;11.20;99.90;;;;;;4940169;29;20183;-76
2024/01/05 12:26:45;;;;;;;42.30;30.20;;;11.30;99.90;;;;;;4940304;29;20124;-77
2024/01/05 12:29:12;;;;;;;42.75;28.75;;;11.30;99.90;;;;;;4940141;29;20472;-77
2024/01/05 12:31:40;;;;;;;34.78;23.98;;;11.30;99.90;;;;;;4937060;29;20163;-78
2024/01/05 12:34:06;;;;;;;33.53;21.77;;;11.30;99.90;;;;;;4937346;29;20031;-78